Scroll down
FLIGHT INFORMATION
British Airways

BAW1015

At Arrival Gate

KSFO
 ESGG
DATE: 2020-10-15
GATE:  -
GATE DEPARTURE: 19:01
TAKEOFF: 19:20
DATE: 2020-10-16
GATE:  -
LANDING: 05:09
GATE ARRIVAL: 05:17
FLIGHT DATA
Crew: 
Speed: 
970 kph
Altitude: 
35,043 ft
Stage Length: 
8,607.9 km
Block Time: 
10.2 hrs
Flight Time: 
9.8 hrs
Fuel Used: 
107,286 kg
Cleared Route: KSFO TRUKN DEDHD ILR MLP ONEAL HAYDN YYC SAXOL PEPGO RODKU ALKIK YBK UX YCY ABIBA APTEK TOR BOMGU XENTA KELIN ESGG
TRACK DATA
50,000 ft 1,000 kts
AIRCRAFT INFO AND CUMULATIVE STATS
Aircraft Type: 
B744
Registration: 
SELCAL: 
BGMS
MSN/LN: 
25814 / 1079
Operator: 
Total Flights: 
11
Total Block Time: 
30.4 hrs
Total Flight Time: 
27.8 hrs
Total Fuel Used: 
230,734 kg
DATALINK LOG | Newest first | Current as of: 2022-12-07 09:30:26
LABEL SEQUENCE CONTENT Dn/Up
QD185405:17 70.6▼ Dn
QC104605:09▼ Dn
5R4118APTEK 04:03z FL350 TOR 04:46z BOMGU M0.84 41.4 -59 317/19 RW03 05:08z▼ Dn
2U1424ESGG 160350Z 32005KT CAVOK 04/02 Q1023▲ Up
2S1553ESGG▼ Dn
2U4807ESGG 160320Z 31005KT CAVOK 03/02 Q1023▲ Up
2S4928ESGG▼ Dn
2U2946ESGG 160150Z 31005KT CAVOK 04/02 Q1023▲ Up
2S3011ESGG▼ Dn
5R0249YCY 00:56z FL330 ABIBA 01:24z APTEK M0.84 71.0 -49 173/37 ESGG 05:05z▼ Dn
5R0248YCY 00:56z FL330 ABIBA 01:24z APTEK M0.84 71.0 -49 173/37 ESGG 05:05z▼ Dn
5R2925PEPGO 21:23z FL309 RODKU 21:28z ALKIK M0.84 108.6 -46 324/156 ESGG 05:11z▼ Dn
5Z282415 OCT 20 21:27:09z / FLT DECK GOOD / ACF POS GOOD / GRND SERVICES GOOD / MAINT GOOD▼ Dn
5R4040DEDHD 19:29z 15900 ILR 20:11z MLP 360 132.5 -2 / ESGG 05:04z▼ Dn
QB212319:20▼ Dn
QA020419:01 307.4▼ Dn
A35103CLEARED TO ESGG VIA TRUKN2 DEDHD ILR MLP J537 YYC SAXOL Q965 ALKIK YBK UX YCY ABIBA APTEK TOR Z132 XENTA KELIN KELI2L. SQUAWK 3022.▲ Up
Q04953[LINK ACK]▲ Up
Q04953[LINK TEST]▼ Dn


AIRCRAFT HISTORY
FLIGHT DATE FLIGHT NO. ORIGIN DESTINATION CLEARED ROUTE BLOCK TIME FLIGHT TIME FUEL USED PILOT
2020-11-28EIDW EGLL EIDW CI09L RW09L1.2 hrs1 hrs0 lbken rose
2020-10-16BAW1016ESGG EIDW ESGG GG402 GG404 GG405 GG910 TAKOV DETNA AAL KEMEG RERPA EVAKI AMRAM BUSOM PETIL SURAT CUTEL GOMOT MADAD SAB TRN BLACA NELBO NIMAT EKREN ELBON ASDER AKIVA ADNAL APRUT DW865 DW866 NEKIL RISAP RW10R2.4 hrs2.1 hrs46,229 lbDouglas Morlan
2020-10-15BAW1015KSFO ESGG KSFO TRUKN DEDHD ILR MLP ONEAL HAYDN YYC SAXOL PEPGO RODKU ALKIK YBK UX YCY ABIBA APTEK TOR BOMGU XENTA KELIN ESGG10.2 hrs9.8 hrs236,525 lbDouglas Morlan
2020-07-18BAW287EGLL KSFO EGLL D268D D281G BURNB D356D UMLAT WOBUN WELIN AKUPA TIMPO ELVOS TNT RODOL TENSO BELOX REMSI APSOV PIKIL 5720N 5730N 5640N 5550N LOMSI JOVIE DUSMA YRL MOT PARZZ ROOHZ PUHGI JENSA FIMUV LEGGS KSFO11.3 hrs11 hrs270,321 lbMichael Roth
2020-07-14BAW9001EGPK EGLL EGPK LUCCO OSMEG RIPNO DCS LAKEY NUGRA EGLL1 hrs0.8 hrs21,297 lbAnton Vind
2019-02-01BAW201EGLL EGPK EGLL D113B D071J D330T ULTIB TNT D312E DAYNE RW05R1.1 hrs0.8 hrs24,484 lb-HIDDEN-
2019-01-18BAW188EGGP EGLL D084A WHINB NANTI HON TOBID SOPIT WCONB0.8 hrs0.6 hrs18,263 lb-HIDDEN-
2018-11-19EGGP EGGP D084A WHINB NANTI STAFA HON PIXUP FINMA BETPO BIG SANDY MOTOX INGNB LESDO BUBLI LUVAL LANVI EPL LASAT BEGAR ELMUR RESIA LISKO GISNU XAPAT TIGRA BEDEX KRK MALED NIDRI ROTSA NEMES0.5 hrs0.3 hrs12,136 lb-HIDDEN-
2018-08-20BAW9001EGLL EGGP 0.8 hrs0.5 hrs17,820 lbMatthew Gales
2018-08-16BAW0EGFF EGLL 0.8 hrs0.6 hrs15,479 lbMatthew Gales
2018-03-30EGLL EGFF 0.4 hrs0.3 hrs10,060 lbChris Makris